Wetterdaten: Woche 18.10.21 - 24.10.21 (KW42)
Datum Zeit Temp. Aussen Temp. o. S. Temp +5cm Feuchte Auss Luftdruck Regen Sonnenschein Regendauer Solar Windben Empfang
18.10.2021 00:00 8,9 C 8,7 C 7,3 C 88 % 1022,5 hPa 0,0 l/m 0,00 h 0,00 h 0 W/m 5,1 km/h (1 Bft) 95,15 %
18.10.2021 01:00 9,0 C 8,2 C 7,2 C 87 % 1022,8 hPa 0,0 l/m 0,00 h 0,00 h 0 W/m 3,6 km/h (1 Bft) 99,29 %
18.10.2021 02:00 8,3 C 7,2 C 6,3 C 89 % 1022,8 hPa 0,0 l/m 0,00 h 0,00 h 0 W/m 4,6 km/h (1 Bft) 97,37 %
18.10.2021 03:00 7,4 C 6,3 C 5,6 C 91 % 1023,0 hPa 0,0 l/m 0,00 h 0,00 h 0 W/m 2,0 km/h (1 Bft) 97,44 %
18.10.2021 04:00 6,9 C 6,1 C 5,6 C 93 % 1022,9 hPa 0,0 l/m 0,00 h 0,00 h 0 W/m 4,4 km/h (1 Bft) 97,37 %
18.10.2021 05:00 6,6 C 6,1 C 5,6 C 93 % 1022,8 hPa 0,0 l/m 0,00 h 0,00 h 0 W/m 5,2 km/h (1 Bft) 96,92 %
18.10.2021 06:00 6,3 C 5,6 C 5,0 C 94 % 1023,0 hPa 0,0 l/m 0,00 h 0,00 h 0 W/m 4,4 km/h (1 Bft) 97,75 %
18.10.2021 07:00 6,1 C 5,6 C 5,0 C 94 % 1023,2 hPa 0,0 l/m 0,00 h 0,00 h 0 W/m 5,9 km/h (2 Bft) 95,80 %
18.10.2021 08:00 6,2 C 5,8 C 5,3 C 94 % 1023,3 hPa 0,0 l/m 0,00 h 0,00 h 20 W/m 5,0 km/h (1 Bft) 99,15 %
18.10.2021 09:00 7,1 C 7,3 C 6,5 C 95 % 1023,6 hPa 0,0 l/m 0,00 h 0,00 h 67 W/m 9,2 km/h (2 Bft) 95,94 %
18.10.2021 10:00 8,6 C 8,9 C 7,9 C 92 % 1023,7 hPa 0,0 l/m 0,23 h 0,00 h 141 W/m 12,6 km/h (3 Bft) 97,36 %
18.10.2021 11:00 10,8 C 13,3 C 10,3 C 86 % 1023,6 hPa 0,0 l/m 0,47 h 0,00 h 211 W/m 13,1 km/h (3 Bft) 98,51 %
18.10.2021 12:00 12,6 C 13,0 C 11,4 C 80 % 1023,5 hPa 0,0 l/m 0,10 h 0,00 h 192 W/m 14,0 km/h (3 Bft) 97,68 %
18.10.2021 13:00 13,6 C 14,0 C 11,3 C 78 % 1023,0 hPa 0,0 l/m 0,27 h 0,00 h 239 W/m 14,7 km/h (3 Bft) 96,63 %
18.10.2021 14:00 15,0 C 15,8 C 12,3 C 75 % 1022,1 hPa 0,0 l/m 1,00 h 0,00 h 386 W/m 14,9 km/h (3 Bft) 99,00 %
18.10.2021 15:00 14,7 C 14,4 C 12,0 C 76 % 1021,5 hPa 0,0 l/m 0,17 h 0,00 h 181 W/m 13,3 km/h (3 Bft) 97,44 %
18.10.2021 16:00 14,4 C 14,0 C 11,7 C 77 % 1021,5 hPa 0,0 l/m 0,17 h 0,00 h 123 W/m 11,6 km/h (2 Bft) 97,01 %
18.10.2021 17:00 14,0 C 13,3 C 11,1 C 80 % 1021,5 hPa 0,0 l/m 0,00 h 0,00 h 58 W/m 11,6 km/h (2 Bft) 98,00 %
18.10.2021 18:00 13,2 C 12,4 C 10,5 C 83 % 1021,5 hPa 0,0 l/m 0,00 h 0,00 h 14 W/m 12,7 km/h (3 Bft) 96,91 %
18.10.2021 19:00 12,4 C 11,6 C 9,9 C 86 % 1021,5 hPa 0,0 l/m 0,00 h 0,00 h 0 W/m 11,1 km/h (2 Bft) 96,62 %
18.10.2021 20:00 11,8 C 11,1 C 9,5 C 87 % 1021,4 hPa 0,0 l/m 0,00 h 0,00 h 0 W/m 13,4 km/h (3 Bft) 96,51 %
18.10.2021 21:00 11,3 C 10,6 C 9,2 C 88 % 1021,4 hPa 0,0 l/m 0,00 h 0,00 h 0 W/m 12,9 km/h (3 Bft) 97,30 %
18.10.2021 22:00 11,0 C 10,5 C 8,9 C 89 % 1021,4 hPa 0,0 l/m 0,00 h 0,00 h 0 W/m 12,6 km/h (3 Bft) 98,36 %
18.10.2021 23:00 10,9 C 10,1 C 8,9 C 89 % 1021,2 hPa 0,0 l/m 0,00 h 0,00 h 0 W/m 13,1 km/h (3 Bft) 97,23 %
19.10.2021 00:00 10,8 C 10,0 C 8,9 C 89 % 1020,8 hPa 0,0 l/m 0,00 h 0,00 h 0 W/m 12,1 km/h (2 Bft) 97,18 %
19.10.2021 01:00 10,8 C 10,1 C 8,9 C 90 % 1020,6 hPa 0,0 l/m 0,00 h 0,00 h 0 W/m 12,9 km/h (3 Bft) 97,33 %
19.10.2021 02:00 11,0 C 10,6 C 9,5 C 90 % 1020,3 hPa 0,0 l/m 0,00 h 0,00 h 0 W/m 11,2 km/h (2 Bft) 95,94 %
19.10.2021 03:00 11,0 C 10,1 C 8,9 C 92 % 1020,2 hPa 0,0 l/m 0,00 h 0,47 h 0 W/m 9,4 km/h (2 Bft) 98,15 %
19.10.2021 04:00 11,0 C 10,0 C 8,9 C 94 % 1019,6 hPa 0,4 l/m 0,00 h 0,80 h 0 W/m 7,1 km/h (2 Bft) 98,85 %
19.10.2021 05:00 11,1 C 10,5 C 9,4 C 95 % 1019,1 hPa 1,2 l/m 0,00 h 0,83 h 0 W/m 9,9 km/h (2 Bft) 95,52 %
19.10.2021 06:00 11,3 C 10,6 C 9,7 C 96 % 1018,8 hPa 1,2 l/m 0,00 h 0,60 h 0 W/m 11,8 km/h (2 Bft) 99,21 %
19.10.2021 07:00 11,4 C 10,6 C 10,0 C 97 % 1018,6 hPa 0,2 l/m 0,00 h 0,20 h 0 W/m 11,9 km/h (2 Bft) 98,08 %
19.10.2021 08:00 11,5 C 10,8 C 10,5 C 98 % 1018,4 hPa 0,2 l/m 0,00 h 0,00 h 10 W/m 8,8 km/h (2 Bft) 95,82 %
19.10.2021 09:00 12,0 C 11,4 C 11,0 C 98 % 1018,4 hPa 0,0 l/m 0,00 h 0,07 h 20 W/m 7,2 km/h (2 Bft) 98,72 %
19.10.2021 10:00 12,5 C 11,9 C 11,5 C 98 % 1018,5 hPa 0,0 l/m 0,00 h 0,00 h 36 W/m 7,7 km/h (2 Bft) 97,66 %
19.10.2021 11:00 13,1 C 12,6 C 12,3 C 99 % 1018,5 hPa 0,4 l/m 0,00 h 0,20 h 50 W/m 6,4 km/h (2 Bft) 96,37 %
19.10.2021 12:00 13,9 C 13,3 C 13,0 C 99 % 1018,5 hPa 0,6 l/m 0,00 h 0,03 h 56 W/m 6,8 km/h (2 Bft) 99,36 %
19.10.2021 13:00 15,1 C 14,8 C 14,2 C 99 % 1018,2 hPa 0,0 l/m 0,00 h 0,00 h 93 W/m 8,0 km/h (2 Bft) 96,58 %
19.10.2021 14:00 16,4 C 16,0 C 15,3 C 99 % 1017,7 hPa 0,0 l/m 0,00 h 0,07 h 78 W/m 13,3 km/h (3 Bft) 97,58 %
19.10.2021 15:00 16,9 C 16,6 C 15,6 C 99 % 1017,4 hPa 0,0 l/m 0,00 h 0,00 h 56 W/m 19,5 km/h (3 Bft) 98,86 %
19.10.2021 16:00 17,2 C 16,7 C 15,9 C 98 % 1017,1 hPa 0,0 l/m 0,00 h 0,00 h 55 W/m 18,3 km/h (3 Bft) 96,01 %
19.10.2021 17:00 17,6 C 17,1 C 16,1 C 96 % 1016,7 hPa 0,0 l/m 0,07 h 0,00 h 44 W/m 16,0 km/h (3 Bft) 98,78 %
19.10.2021 18:00 17,4 C 16,6 C 15,6 C 94 % 1016,5 hPa 0,0 l/m 0,00 h 0,00 h 7 W/m 21,6 km/h (4 Bft) 98,45 %
19.10.2021 19:00 16,4 C 15,3 C 14,6 C 94 % 1016,4 hPa 0,0 l/m 0,00 h 0,00 h 0 W/m 8,4 km/h (2 Bft) 95,80 %
19.10.2021 20:00 15,6 C 14,4 C 13,9 C 94 % 1016,2 hPa 0,0 l/m 0,00 h 0,00 h 0 W/m 7,0 km/h (2 Bft) 98,36 %
19.10.2021 21:00 15,1 C 14,1 C 13,7 C 95 % 1015,5 hPa 0,0 l/m 0,00 h 0,00 h 0 W/m 8,0 km/h (2 Bft) 98,72 %
19.10.2021 22:00 14,3 C 13,3 C 13,3 C 95 % 1014,9 hPa 0,0 l/m 0,00 h 0,00 h 0 W/m 8,0 km/h (2 Bft) 95,59 %
19.10.2021 23:00 13,8 C 13,0 C 12,8 C 95 % 1014,4 hPa 0,0 l/m 0,00 h 0,00 h 0 W/m 6,5 km/h (2 Bft) 98,72 %
20.10.2021 00:00 13,6 C 13,2 C 12,3 C 94 % 1013,7 hPa 0,0 l/m 0,00 h 0,00 h 0 W/m 6,9 km/h (2 Bft) 97,79 %
20.10.2021 01:00 14,0 C 13,3 C 12,7 C 89 % 1013,1 hPa 0,0 l/m 0,00 h 0,00 h 0 W/m 5,3 km/h (1 Bft) 95,84 %
20.10.2021 02:00 14,2 C 13,7 C 13,2 C 85 % 1012,3 hPa 0,0 l/m 0,00 h 0,00 h 0 W/m 8,9 km/h (2 Bft) 99,36 %
20.10.2021 03:00 14,5 C 13,8 C 13,0 C 83 % 1011,6 hPa 0,0 l/m 0,00 h 0,00 h 0 W/m 7,5 km/h (2 Bft) 96,44 %
20.10.2021 04:00 14,1 C 13,0 C 12,4 C 84 % 1010,9 hPa 0,0 l/m 0,00 h 0,00 h 0 W/m 5,0 km/h (1 Bft) 97,74 %
20.10.2021 05:00 14,1 C 13,4 C 12,5 C 85 % 1010,3 hPa 0,0 l/m 0,00 h 0,00 h 0 W/m 7,9 km/h (2 Bft) 98,36 %
20.10.2021 06:00 14,4 C 13,8 C 12,8 C 85 % 1009,8 hPa 0,0 l/m 0,00 h 0,00 h 0 W/m 10,0 km/h (2 Bft) 97,16 %
20.10.2021 07:00 14,5 C 13,9 C 12,8 C 85 % 1008,8 hPa 0,0 l/m 0,00 h 0,00 h 0 W/m 11,1 km/h (2 Bft) 97,15 %
20.10.2021 08:00 14,2 C 13,2 C 12,5 C 87 % 1008,1 hPa 0,0 l/m 0,00 h 0,00 h 18 W/m 7,1 km/h (2 Bft) 98,67 %
20.10.2021 09:00 14,1 C 13,8 C 12,7 C 89 % 1007,9 hPa 0,0 l/m 0,00 h 0,00 h 45 W/m 10,7 km/h (2 Bft) 96,01 %
20.10.2021 10:00 16,0 C 16,0 C 14,3 C 86 % 1006,7 hPa 0,0 l/m 0,07 h 0,00 h 93 W/m 16,6 km/h (3 Bft) 98,86 %
20.10.2021 11:00 16,6 C 16,0 C 13,6 C 85 % 1006,2 hPa 0,2 l/m 0,00 h 0,30 h 84 W/m 19,5 km/h (3 Bft) 97,93 %
20.10.2021 12:00 16,9 C 16,5 C 14,4 C 83 % 1006,0 hPa 0,0 l/m 0,00 h 0,00 h 75 W/m 20,2 km/h (4 Bft) 96,91 %
20.10.2021 13:00 17,5 C 17,0 C 15,4 C 81 % 1005,9 hPa 0,0 l/m 0,03 h 0,00 h 106 W/m 33,4 km/h (5 Bft) 98,57 %
20.10.2021 14:00 17,1 C 16,5 C 14,9 C 83 % 1005,4 hPa 0,0 l/m 0,00 h 0,10 h 62 W/m 32,7 km/h (5 Bft) 97,93 %
20.10.2021 15:00 17,1 C 16,7 C 15,0 C 84 % 1004,7 hPa 0,0 l/m 0,00 h 0,00 h 75 W/m 31,1 km/h (5 Bft) 96,37 %
20.10.2021 16:00 17,1 C 16,7 C 14,9 C 84 % 1003,9 hPa 0,0 l/m 0,00 h 0,00 h 65 W/m 28,7 km/h (4 Bft) 99,00 %
20.10.2021 17:00 16,9 C 16,2 C 14,5 C 85 % 1003,1 hPa 0,0 l/m 0,00 h 0,00 h 25 W/m 27,7 km/h (4 Bft) 96,46 %
20.10.2021 18:00 16,7 C 16,1 C 14,4 C 85 % 1002,0 hPa 0,0 l/m 0,00 h 0,00 h 5 W/m 25,0 km/h (4 Bft) 97,54 %
20.10.2021 19:00 16,9 C 16,1 C 14,5 C 84 % 1001,3 hPa 0,0 l/m 0,00 h 0,00 h 0 W/m 27,3 km/h (4 Bft) 98,92 %
20.10.2021 20:00 16,9 C 16,1 C 14,3 C 84 % 1000,9 hPa 0,0 l/m 0,00 h 0,07 h 0 W/m 26,8 km/h (4 Bft) 96,59 %
20.10.2021 21:00 16,4 C 15,0 C 13,4 C 86 % 1000,0 hPa 3,6 l/m 0,00 h 0,33 h 0 W/m 17,6 km/h (3 Bft) 97,66 %
20.10.2021 22:00 15,1 C 13,9 C 12,4 C 93 % 998,8 hPa 0,8 l/m 0,00 h 0,10 h 0 W/m 12,3 km/h (3 Bft) 99,21 %
20.10.2021 23:00 15,1 C 14,2 C 12,4 C 93 % 997,2 hPa 0,0 l/m 0,00 h 0,00 h 0 W/m 7,1 km/h (2 Bft) 93,73 %
21.10.2021 00:00 14,9 C 14,3 C 12,3 C 91 % 995,3 hPa 0,0 l/m 0,00 h 0,00 h 0 W/m 10,4 km/h (2 Bft) 99,25 %
21.10.2021 01:00 15,3 C 14,8 C 12,3 C 88 % 992,7 hPa 0,0 l/m 0,00 h 0,00 h 0 W/m 13,2 km/h (3 Bft) 98,43 %
21.10.2021 02:00 15,0 C 13,6 C 12,3 C 90 % 990,9 hPa 3,0 l/m 0,00 h 0,70 h 0 W/m 20,0 km/h (4 Bft) 96,51 %
21.10.2021 03:00 14,2 C 13,1 C 11,3 C 86 % 990,0 hPa 0,4 l/m 0,00 h 0,23 h 0 W/m 41,2 km/h (6 Bft) 96,68 %
21.10.2021 04:00 12,9 C 11,9 C 9,8 C 84 % 989,5 hPa 0,0 l/m 0,00 h 0,00 h 0 W/m 39,4 km/h (6 Bft) 98,29 %
21.10.2021 05:00 12,9 C 12,1 C 10,1 C 81 % 989,2 hPa 0,0 l/m 0,00 h 0,10 h 0 W/m 46,2 km/h (6 Bft) 96,65 %
21.10.2021 06:00 12,9 C 12,2 C 11,0 C 81 % 988,7 hPa 0,0 l/m 0,00 h 0,27 h 0 W/m 47,5 km/h (6 Bft) 99,22 %
21.10.2021 07:00 11,8 C 11,1 C 9,9 C 88 % 988,7 hPa 0,0 l/m 0,00 h 0,73 h 0 W/m 51,4 km/h (7 Bft) 96,80 %
21.10.2021 08:00 10,4 C 9,4 C 8,5 C 92 % 992,6 hPa 2,0 l/m 0,00 h 1,00 h 7 W/m 43,4 km/h (6 Bft) 97,49 %
21.10.2021 09:00 9,8 C 9,2 C 8,3 C 93 % 998,3 hPa 0,6 l/m 0,00 h 0,50 h 34 W/m 27,2 km/h (4 Bft) 97,58 %
21.10.2021 10:00 10,3 C 10,2 C 8,6 C 90 % 1001,1 hPa 0,0 l/m 0,10 h 0,10 h 107 W/m 23,5 km/h (4 Bft) 98,29 %
21.10.2021 11:00 10,9 C 10,8 C 8,7 C 87 % 1002,5 hPa 0,0 l/m 0,10 h 0,43 h 115 W/m 26,8 km/h (4 Bft) 96,87 %
21.10.2021 12:00 11,7 C 11,7 C 9,4 C 81 % 1003,3 hPa 0,0 l/m 0,20 h 0,17 h 196 W/m 28,4 km/h (4 Bft) 97,37 %
21.10.2021 13:00 12,0 C 12,0 C 10,6 C 82 % 1004,1 hPa 0,0 l/m 0,10 h 0,00 h 166 W/m 25,4 km/h (4 Bft) 97,46 %
21.10.2021 14:00 10,8 C 10,6 C 8,4 C 85 % 1004,5 hPa 1,2 l/m 0,20 h 0,67 h 156 W/m 28,7 km/h (4 Bft) 95,47 %
21.10.2021 15:00 9,8 C 9,5 C 7,7 C 89 % 1005,7 hPa 0,0 l/m 0,00 h 0,60 h 114 W/m 21,9 km/h (4 Bft) 97,51 %
21.10.2021 16:00 10,0 C 10,1 C 8,4 C 88 % 1007,0 hPa 0,0 l/m 0,70 h 0,17 h 188 W/m 16,1 km/h (3 Bft) 98,44 %
21.10.2021 17:00 9,7 C 9,2 C 8,0 C 86 % 1008,3 hPa 0,4 l/m 0,12 h 0,17 h 40 W/m 18,0 km/h (3 Bft) 96,72 %
21.10.2021 18:00 8,9 C 8,2 C 7,3 C 90 % 1009,6 hPa 0,0 l/m 0,08 h 0,00 h 9 W/m 6,2 km/h (2 Bft) 97,36 %
21.10.2021 19:00 8,5 C 7,9 C 7,3 C 91 % 1010,7 hPa 0,0 l/m 0,00 h 0,00 h 0 W/m 9,1 km/h (2 Bft) 97,84 %
21.10.2021 20:00 7,7 C 7,0 C 6,5 C 90 % 1011,8 hPa 0,0 l/m 0,00 h 0,00 h 0 W/m 9,4 km/h (2 Bft) 96,07 %
21.10.2021 21:00 7,0 C 6,4 C 6,1 C 91 % 1013,0 hPa 0,0 l/m 0,00 h 0,00 h 0 W/m 5,9 km/h (2 Bft) 97,65 %
21.10.2021 22:00 6,7 C 6,1 C 5,8 C 92 % 1013,9 hPa 0,0 l/m 0,00 h 0,00 h 0 W/m 7,5 km/h (2 Bft) 97,94 %
21.10.2021 23:00 6,4 C 5,7 C 5,6 C 93 % 1014,7 hPa 0,0 l/m 0,00 h 0,00 h 0 W/m 5,6 km/h (1 Bft) 98,13 %
22.10.2021 00:00 6,3 C 6,0 C 5,7 C 93 % 1015,2 hPa 0,0 l/m 0,00 h 0,00 h 0 W/m 7,6 km/h (2 Bft) 97,18 %
22.10.2021 01:00 6,8 C 6,6 C 6,1 C 91 % 1015,5 hPa 0,0 l/m 0,00 h 0,00 h 0 W/m 9,6 km/h (2 Bft) 97,10 %
22.10.2021 02:00 6,5 C 5,8 C 5,7 C 90 % 1015,7 hPa 0,0 l/m 0,00 h 0,00 h 0 W/m 8,6 km/h (2 Bft) 99,79 %
22.10.2021 03:00 6,0 C 5,6 C 5,6 C 92 % 1015,7 hPa 0,0 l/m 0,00 h 0,00 h 0 W/m 14,2 km/h (3 Bft) 95,66 %
22.10.2021 04:00 5,7 C 5,1 C 5,0 C 92 % 1015,5 hPa 0,0 l/m 0,00 h 0,00 h 0 W/m 14,2 km/h (3 Bft) 96,61 %
22.10.2021 05:00 5,4 C 5,0 C 5,0 C 90 % 1015,5 hPa 0,0 l/m 0,00 h 0,00 h 0 W/m 17,0 km/h (3 Bft) 97,62 %
22.10.2021 06:00 5,4 C 5,0 C 5,0 C 89 % 1015,2 hPa 0,0 l/m 0,00 h 0,00 h 0 W/m 15,3 km/h (3 Bft) 96,48 %
22.10.2021 07:00 5,5 C 5,0 C 4,8 C 88 % 1015,5 hPa 0,0 l/m 0,00 h 0,00 h 0 W/m 15,1 km/h (3 Bft) 97,01 %
22.10.2021 08:00 5,7 C 5,2 C 5,0 C 87 % 1015,1 hPa 0,0 l/m 0,00 h 0,00 h 13 W/m 16,2 km/h (3 Bft) 97,58 %
22.10.2021 09:00 6,4 C 6,1 C 5,5 C 86 % 1015,4 hPa 0,0 l/m 0,00 h 0,00 h 40 W/m 15,3 km/h (3 Bft) 96,91 %
22.10.2021 10:00 7,9 C 8,0 C 7,0 C 83 % 1015,8 hPa 0,0 l/m 0,17 h 0,00 h 129 W/m 22,1 km/h (4 Bft) 96,58 %
22.10.2021 11:00 9,3 C 12,1 C 9,3 C 81 % 1016,0 hPa 0,0 l/m 0,30 h 0,00 h 200 W/m 23,8 km/h (4 Bft) 98,15 %
22.10.2021 12:00 11,0 C 11,4 C 9,7 C 77 % 1016,1 hPa 0,2 l/m 0,23 h 0,00 h 150 W/m 23,7 km/h (4 Bft) 97,94 %
22.10.2021 13:00 11,4 C 11,4 C 9,4 C 75 % 1016,3 hPa 0,0 l/m 0,13 h 0,00 h 146 W/m 24,6 km/h (4 Bft) 97,72 %
22.10.2021 14:00 11,5 C 11,5 C 9,5 C 75 % 1016,6 hPa 0,0 l/m 0,17 h 0,00 h 194 W/m 23,8 km/h (4 Bft) 97,64 %
22.10.2021 15:00 12,0 C 12,1 C 9,7 C 75 % 1016,9 hPa 0,0 l/m 0,43 h 0,00 h 190 W/m 21,5 km/h (4 Bft) 96,96 %
22.10.2021 16:00 12,0 C 12,1 C 9,5 C 77 % 1017,2 hPa 0,0 l/m 0,57 h 0,03 h 157 W/m 22,4 km/h (4 Bft) 99,57 %
22.10.2021 17:00 11,0 C 10,5 C 8,7 C 82 % 1017,9 hPa 0,0 l/m 0,00 h 0,00 h 26 W/m 20,7 km/h (4 Bft) 95,59 %
22.10.2021 18:00 10,2 C 9,3 C 7,6 C 88 % 1019,1 hPa 0,6 l/m 0,00 h 0,77 h 6 W/m 18,6 km/h (3 Bft) 98,47 %
22.10.2021 19:00 9,1 C 8,3 C 6,7 C 93 % 1020,1 hPa 0,0 l/m 0,00 h 0,10 h 0 W/m 11,1 km/h (2 Bft) 97,45 %
22.10.2021 20:00 8,8 C 8,1 C 6,7 C 94 % 1021,1 hPa 0,0 l/m 0,00 h 0,00 h 0 W/m 7,0 km/h (2 Bft) 97,79 %
22.10.2021 21:00 8,6 C 7,8 C 7,2 C 95 % 1021,7 hPa 0,0 l/m 0,00 h 0,00 h 0 W/m 6,2 km/h (2 Bft) 95,60 %
22.10.2021 22:00 8,4 C 7,7 C 6,7 C 95 % 1022,6 hPa 0,0 l/m 0,00 h 0,00 h 0 W/m 4,9 km/h (1 Bft) 96,72 %
22.10.2021 23:00 8,3 C 7,7 C 7,2 C 96 % 1023,3 hPa 0,0 l/m 0,00 h 0,00 h 0 W/m 4,8 km/h (1 Bft) 98,05 %
23.10.2021 00:00 8,0 C 7,4 C 6,9 C 96 % 1023,9 hPa 0,0 l/m 0,00 h 0,00 h 0 W/m 4,1 km/h (1 Bft) 91,92 %
23.10.2021 01:00 7,8 C 7,0 C 6,5 C 96 % 1024,3 hPa 0,0 l/m 0,00 h 0,00 h 0 W/m 2,8 km/h (1 Bft) 98,58 %
23.10.2021 02:00 7,4 C 6,7 C 6,3 C 96 % 1025,0 hPa 0,0 l/m 0,00 h 0,00 h 0 W/m 1,7 km/h (1 Bft) 98,08 %
23.10.2021 03:00 7,3 C 6,7 C 6,6 C 96 % 1025,3 hPa 0,0 l/m 0,00 h 0,00 h 0 W/m 1,9 km/h (1 Bft) 95,88 %
23.10.2021 04:00 7,2 C 6,7 C 6,4 C 97 % 1025,0 hPa 0,0 l/m 0,00 h 0,00 h 0 W/m 2,1 km/h (1 Bft) 98,22 %
23.10.2021 05:00 6,9 C 6,0 C 6,1 C 97 % 1025,5 hPa 0,0 l/m 0,00 h 0,00 h 0 W/m 0,3 km/h (0 Bft) 97,37 %
23.10.2021 06:00 6,4 C 5,3 C 5,4 C 97 % 1025,7 hPa 0,2 l/m 0,00 h 0,00 h 0 W/m 0,1 km/h (0 Bft) 97,94 %
23.10.2021 07:00 5,7 C 4,7 C 4,8 C 97 % 1025,9 hPa 0,0 l/m 0,00 h 0,00 h 0 W/m 0,1 km/h (0 Bft) 95,39 %
23.10.2021 08:00 5,2 C 4,5 C 5,0 C 97 % 1026,4 hPa 0,0 l/m 0,00 h 0,00 h 19 W/m 0,1 km/h (0 Bft) 97,92 %
23.10.2021 09:00 5,7 C 6,1 C 6,2 C 97 % 1027,4 hPa 0,0 l/m 0,00 h 0,00 h 59 W/m 0,0 km/h (0 Bft) 97,02 %
23.10.2021 10:00 7,6 C 8,5 C 7,9 C 98 % 1028,1 hPa 0,0 l/m 0,07 h 0,00 h 109 W/m 1,9 km/h (1 Bft) 97,68 %
23.10.2021 11:00 9,4 C 12,2 C 10,1 C 98 % 1028,5 hPa 0,0 l/m 0,70 h 0,00 h 213 W/m 5,0 km/h (1 Bft) 98,18 %
23.10.2021 12:00 10,3 C 11,2 C 10,6 C 96 % 1028,9 hPa 0,0 l/m 0,00 h 0,00 h 170 W/m 3,8 km/h (1 Bft) 97,79 %
23.10.2021 13:00 11,1 C 11,8 C 11,0 C 91 % 1028,9 hPa 0,0 l/m 0,00 h 0,00 h 168 W/m 5,1 km/h (1 Bft) 96,15 %
23.10.2021 14:00 11,9 C 12,6 C 11,2 C 86 % 1028,7 hPa 0,0 l/m 0,37 h 0,00 h 257 W/m 6,3 km/h (2 Bft) 99,72 %
23.10.2021 15:00 13,0 C 13,9 C 11,3 C 75 % 1028,4 hPa 0,0 l/m 0,90 h 0,00 h 285 W/m 8,1 km/h (2 Bft) 98,29 %
23.10.2021 16:00 13,1 C 13,1 C 10,8 C 75 % 1028,3 hPa 0,0 l/m 0,80 h 0,00 h 235 W/m 11,2 km/h (2 Bft) 94,93 %
23.10.2021 17:00 11,8 C 10,9 C 9,3 C 82 % 1028,2 hPa 0,0 l/m 0,00 h 0,00 h 30 W/m 7,9 km/h (2 Bft) 97,30 %
23.10.2021 18:00 10,6 C 9,2 C 8,1 C 86 % 1028,4 hPa 0,0 l/m 0,00 h 0,00 h 9 W/m 3,5 km/h (1 Bft) 96,87 %
23.10.2021 19:00 9,3 C 7,9 C 6,8 C 88 % 1028,6 hPa 0,0 l/m 0,00 h 0,00 h 0 W/m 1,2 km/h (1 Bft) 99,86 %
23.10.2021 20:00 8,4 C 7,5 C 6,7 C 89 % 1028,7 hPa 0,0 l/m 0,00 h 0,00 h 0 W/m 2,9 km/h (1 Bft) 95,51 %
23.10.2021 21:00 7,6 C 6,7 C 5,8 C 88 % 1028,6 hPa 0,0 l/m 0,00 h 0,00 h 0 W/m 1,3 km/h (1 Bft) 97,85 %
23.10.2021 22:00 6,9 C 6,1 C 5,2 C 89 % 1028,5 hPa 0,0 l/m 0,00 h 0,00 h 0 W/m 1,8 km/h (1 Bft) 98,07 %
23.10.2021 23:00 6,6 C 5,9 C 5,5 C 91 % 1028,5 hPa 0,0 l/m 0,00 h 0,00 h 0 W/m 3,6 km/h (1 Bft) 98,51 %
24.10.2021 00:00 6,1 C 5,4 C 5,0 C 91 % 1028,5 hPa 0,0 l/m 0,00 h 0,00 h 0 W/m 3,1 km/h (1 Bft) 95,65 %
24.10.2021 01:00 5,9 C 5,3 C 5,0 C 92 % 1028,4 hPa 0,0 l/m 0,00 h 0,00 h 0 W/m 3,2 km/h (1 Bft) 98,50 %
24.10.2021 02:00 5,6 C 5,0 C 4,9 C 93 % 1028,3 hPa 0,0 l/m 0,00 h 0,00 h 0 W/m 4,5 km/h (1 Bft) 97,22 %
24.10.2021 03:00 5,2 C 4,5 C 4,5 C 94 % 1027,9 hPa 0,0 l/m 0,00 h 0,00 h 0 W/m 3,4 km/h (1 Bft) 96,78 %
24.10.2021 04:00 4,9 C 4,3 C 4,4 C 94 % 1027,3 hPa 0,0 l/m 0,00 h 0,00 h 0 W/m 4,3 km/h (1 Bft) 96,10 %
24.10.2021 05:00 4,4 C 3,8 C 3,9 C 94 % 1027,0 hPa 0,0 l/m 0,00 h 0,00 h 0 W/m 3,3 km/h (1 Bft) 97,37 %
24.10.2021 06:00 4,0 C 3,3 C 3,6 C 94 % 1026,7 hPa 0,0 l/m 0,00 h 0,00 h 0 W/m 1,7 km/h (1 Bft) 97,94 %
24.10.2021 07:00 3,6 C 2,8 C 3,0 C 94 % 1026,2 hPa 0,2 l/m 0,00 h 0,00 h 0 W/m 0,1 km/h (0 Bft) 95,94 %
24.10.2021 08:00 3,2 C 2,6 C 3,0 C 94 % 1025,8 hPa 0,0 l/m 0,00 h 0,00 h 11 W/m 1,7 km/h (1 Bft) 97,93 %
24.10.2021 09:00 4,2 C 4,4 C 4,3 C 96 % 1025,6 hPa 0,0 l/m 0,00 h 0,00 h 27 W/m 7,0 km/h (2 Bft) 97,23 %
24.10.2021 10:00 5,9 C 6,6 C 5,9 C 94 % 1025,3 hPa 0,0 l/m 0,10 h 0,00 h 78 W/m 14,6 km/h (3 Bft) 98,93 %
24.10.2021 11:00 8,8 C 14,7 C 9,0 C 83 % 1024,8 hPa 0,0 l/m 0,53 h 0,00 h 223 W/m 15,9 km/h (3 Bft) 97,22 %
24.10.2021 12:00 10,2 C 10,5 C 9,1 C 76 % 1024,1 hPa 0,0 l/m 0,00 h 0,00 h 59 W/m 15,2 km/h (3 Bft) 98,14 %
24.10.2021 13:00 11,3 C 12,3 C 9,0 C 73 % 1023,8 hPa 0,0 l/m 0,33 h 0,00 h 202 W/m 14,1 km/h (3 Bft) 96,41 %
24.10.2021 14:00 13,0 C 14,9 C 9,7 C 69 % 1023,5 hPa 0,0 l/m 1,00 h 0,00 h 477 W/m 12,6 km/h (3 Bft) 99,15 %
24.10.2021 15:00 13,7 C 13,8 C 10,2 C 67 % 1022,8 hPa 0,0 l/m 1,00 h 0,00 h 393 W/m 12,6 km/h (3 Bft) 96,70 %
24.10.2021 16:00 13,7 C 13,4 C 10,1 C 67 % 1022,1 hPa 0,0 l/m 0,87 h 0,00 h 223 W/m 9,7 km/h (2 Bft) 97,67 %
24.10.2021 17:00 13,0 C 12,0 C 9,4 C 71 % 1021,3 hPa 0,0 l/m 0,00 h 0,00 h 24 W/m 6,1 km/h (2 Bft) 97,23 %
24.10.2021 18:00 11,7 C 10,3 C 8,0 C 75 % 1020,9 hPa 0,0 l/m 0,00 h 0,00 h 8 W/m 3,5 km/h (1 Bft) 96,49 %
24.10.2021 19:00 10,2 C 9,3 C 7,3 C 79 % 1020,6 hPa 0,0 l/m 0,00 h 0,00 h 0 W/m 7,4 km/h (2 Bft) 98,07 %
24.10.2021 20:00 9,7 C 8,7 C 6,9 C 81 % 1020,8 hPa 0,0 l/m 0,00 h 0,00 h 0 W/m 9,5 km/h (2 Bft) 96,73 %
24.10.2021 21:00 8,5 C 7,5 C 6,0 C 84 % 1020,7 hPa 0,0 l/m 0,00 h 0,00 h 0 W/m 7,4 km/h (2 Bft) 97,71 %
24.10.2021 22:00 7,9 C 7,2 C 5,6 C 87 % 1020,6 hPa 0,0 l/m 0,00 h 0,00 h 0 W/m 8,5 km/h (2 Bft) 95,54 %
24.10.2021 23:00 7,5 C 6,7 C 5,1 C 88 % 1020,7 hPa 0,0 l/m 0,00 h 0,00 h 0 W/m 7,2 km/h (2 Bft) 98,93 %
Min-Datum _ 24.10.21 24.10.21 24.10.21 24.10.21 21.10.21 - - - - 18.10.21 23.10.21
_ Min-Zeit 08:20 07:46 07:42 15:26 07:28 - - - - 01:34 00:02
Minimum _ 3,0 C 2,2 C 2,2 C 66 % 988,4 hPa - - - - 0,0 km/h (0 Bft) 5,88 %
Max-Datum _ 19.10.21 24.10.21 19.10.21 19.10.21 23.10.21 20.10.21 21.10.21 19.10.21 21.10.21 21.10.21 18.10.21
_ Max-Zeit 17:38 14:02 16:06 14:38 12:56 21:32 17:55 04:05 14:14 05:44 00:00
Maximum _ 17,7 C 21,7 C 16,1 C 100 % 1029,0 hPa 3,6 l/m 0,08 h 0,08 h 590 W/m 80,5 km/h
S-SW (9 Bft)
100,00 %
Durchschnitt _ 10,7 C 10,3 C 9,2 C 88 % 1016,7 hPa #17,6 l/m #12:50 h #10:54 h 110 W/m 12,4 km/h (3 Bft) 97,41 %
© 2021 W. Hausmann